Time;durP1;ratioP1;P1;durP2;ratioP2;P2;SDS_P1;SDS_P2;PMS_P1;PMS_P2;Temp;Humidity;BMP_temperature;BMP_pressure;BME280_temperature;BME280_humidity;BME280_pressure;Samples;Min_cycle;Max_cycle;Signal;HPM_P1;HPM_P2
2023/05/03 00:00:15;;;;;;;;;;;;;;;16.79;49.35;102649.94;1251093;23;665;-65
2023/05/03 00:01:06;;;;;;;;;;;;;;;16.82;49.40;102654.28;1251036;23;657;-65
2023/05/03 00:01:56;;;;;;;;;;;;;;;16.80;49.63;102648.97;1251308;23;633;-65
2023/05/03 00:02:47;;;;;;;;;;;;;;;16.81;49.86;102653.41;1251115;23;609;-65
2023/05/03 00:03:38;;;;;;;;;;;;;;;16.76;50.02;102650.13;1251060;23;645;-65
2023/05/03 00:04:30;;;;;;;;;;;;;;;16.78;49.88;102652.72;1250894;23;677;-65
2023/05/03 00:05:21;;;;;;;;;;;;;;;16.79;49.72;102658.00;1250934;23;653;-66
2023/05/03 00:06:11;;;;;;;;;;;;;;;16.79;49.37;102654.47;1251098;23;619;-66
2023/05/03 00:07:02;;;;;;;;;;;;;;;16.72;50.07;102655.78;1246931;23;690;-66
2023/05/03 00:07:53;;;;;;;;;;;;;;;16.71;49.78;102646.84;1251341;23;1889;-66
2023/05/03 00:08:43;;;;;;;;;;;;;;;16.72;49.33;102653.97;1251081;23;704;-66
2023/05/03 00:09:34;;;;;;;;;;;;;;;16.71;49.71;102649.53;1248498;23;677;-65
2023/05/03 00:10:25;;;;;;;;;;;;;;;16.73;49.91;102647.63;1251263;23;638;-65
2023/05/03 00:11:15;;;;;;;;;;;;;;;16.71;49.86;102644.16;1251142;23;638;-66
2023/05/03 00:12:05;;;;;;;;;;;;;;;16.75;49.81;102647.53;1247360;23;872;-65
2023/05/03 00:12:56;;;;;;;;;;;;;;;16.71;49.72;102648.66;1251123;23;661;-65
2023/05/03 00:13:46;;;;;;;;;;;;;;;16.72;49.64;102645.88;1247324;23;662;-65
2023/05/03 00:14:37;;;;;;;;;;;;;;;16.69;49.53;102648.75;1251220;23;602;-66
2023/05/03 00:15:27;;;;;;;;;;;;;;;16.66;49.51;102654.31;1251086;23;622;-65
2023/05/03 00:16:18;;;;;;;;;;;;;;;16.65;50.07;102652.63;1246848;23;607;-65
2023/05/03 00:17:08;;;;;;;;;;;;;;;16.64;49.75;102654.44;1251055;23;602;-65
2023/05/03 00:17:59;;;;;;;;;;;;;;;16.63;49.76;102654.53;1251320;23;614;-65
2023/05/03 00:18:49;;;;;;;;;;;;;;;16.59;50.02;102650.28;1251053;23;673;-65
2023/05/03 00:19:41;;;;;;;;;;;;;;;16.63;49.75;102654.53;1246824;23;655;-65
2023/05/03 00:20:32;;;;;;;;;;;;;;;16.63;50.13;102662.63;1250960;23;618;-65
2023/05/03 00:21:22;;;;;;;;;;;;;;;16.62;49.99;102652.78;1250478;23;617;-65
2023/05/03 00:22:13;;;;;;;;;;;;;;;16.62;50.16;102659.03;1251010;23;653;-65
2023/05/03 00:23:03;;;;;;;;;;;;;;;16.61;50.16;102657.28;1251183;23;622;-65
2023/05/03 00:23:53;;;;;;;;;;;;;;;16.58;50.05;102652.09;1251024;23;684;-65
2023/05/03 00:24:44;;;;;;;;;;;;;;;16.52;50.10;102659.66;1251177;23;610;-65
2023/05/03 00:25:34;;;;;;;;;;;;;;;16.55;50.00;102651.41;1247181;23;631;-64
2023/05/03 00:26:25;;;;;;;;;;;;;;;16.59;49.44;102663.72;1251206;23;630;-65
2023/05/03 00:27:15;;;;;;;;;;;;;;;16.55;50.17;102654.97;1250746;23;622;-65
2023/05/03 00:28:06;;;;;;;;;;;;;;;16.58;49.95;102659.31;1251201;23;1881;-65
2023/05/03 00:28:56;;;;;;;;;;;;;;;16.59;49.94;102652.97;1250991;23;673;-65
2023/05/03 00:29:47;;;;;;;;;;;;;;;16.53;49.77;102659.56;1251209;23;676;-65
2023/05/03 00:30:37;;;;;;;;;;;;;;;16.55;50.02;102663.03;1250976;23;641;-65
2023/05/03 00:31:28;;;;;;;;;;;;;;;16.57;49.67;102649.50;1251237;23;641;-65
2023/05/03 00:32:18;;;;;;;;;;;;;;;16.54;49.95;102644.28;1251130;23;626;-65
2023/05/03 00:33:08;;;;;;;;;;;;;;;16.55;50.22;102648.72;1247584;23;614;-65
2023/05/03 00:33:59;;;;;;;;;;;;;;;16.54;49.79;102650.53;1247450;23;657;-65
2023/05/03 00:34:49;;;;;;;;;;;;;;;16.51;49.91;102648.03;1247828;23;623;-65
2023/05/03 00:35:40;;;;;;;;;;;;;;;16.52;50.18;102657.84;1251296;23;665;-65
2023/05/03 00:36:30;;;;;;;;;;;;;;;16.52;49.61;102646.22;1250965;23;677;-65
2023/05/03 00:37:21;;;;;;;;;;;;;;;16.49;49.91;102652.63;1251305;23;654;-65
2023/05/03 00:38:13;;;;;;;;;;;;;;;16.47;50.14;102643.81;1251071;23;782;-65
2023/05/03 00:39:03;;;;;;;;;;;;;;;16.48;50.15;102656.28;1251144;23;661;-65
2023/05/03 00:39:54;;;;;;;;;;;;;;;16.48;50.22;102650.91;1249421;23;650;-65
2023/05/03 00:40:45;;;;;;;;;;;;;;;16.47;50.23;102653.72;1251053;23;701;-65
2023/05/03 00:41:35;;;;;;;;;;;;;;;16.44;50.16;102648.53;1247011;23;615;-65
2023/05/03 00:42:25;;;;;;;;;;;;;;;16.41;50.25;102648.69;1250841;23;650;-65
2023/05/03 00:43:16;;;;;;;;;;;;;;;16.43;49.95;102641.41;1251188;23;753;-65
2023/05/03 00:44:06;;;;;;;;;;;;;;;16.42;50.13;102645.06;1251086;23;673;-65
2023/05/03 00:44:57;;;;;;;;;;;;;;;16.42;50.14;102650.44;1249491;23;622;-65
2023/05/03 00:45:47;;;;;;;;;;;;;;;16.42;50.19;102655.81;1250909;23;1743;-65
2023/05/03 00:46:38;;;;;;;;;;;;;;;16.39;49.92;102651.47;1250930;23;613;-65
2023/05/03 00:47:28;;;;;;;;;;;;;;;16.42;49.98;102651.31;1251064;23;661;-65
2023/05/03 00:48:18;;;;;;;;;;;;;;;16.42;49.81;102655.81;1247618;23;651;-65
2023/05/03 00:49:09;;;;;;;;;;;;;;;16.36;50.46;102653.50;1247333;23;623;-65
2023/05/03 00:49:59;;;;;;;;;;;;;;;16.40;50.29;102652.34;1247870;23;681;-65
2023/05/03 00:50:50;;;;;;;;;;;;;;;16.37;50.24;102644.47;1250633;23;645;-65
2023/05/03 00:51:40;;;;;;;;;;;;;;;16.39;50.13;102650.63;1251070;23;752;-65
2023/05/03 00:52:31;;;;;;;;;;;;;;;16.40;50.03;102646.97;1251129;23;665;-65
2023/05/03 00:53:21;;;;;;;;;;;;;;;16.37;50.41;102650.72;1247003;23;698;-65
2023/05/03 00:54:12;;;;;;;;;;;;;;;16.34;50.33;102642.81;1251226;23;614;-65
2023/05/03 00:55:02;;;;;;;;;;;;;;;16.31;50.29;102643.84;1251152;23;1236;-65
2023/05/03 00:55:53;;;;;;;;;;;;;;;16.30;50.26;102644.81;1249545;23;669;-65
2023/05/03 00:56:43;;;;;;;;;;;;;;;16.30;50.32;102649.38;1250995;23;622;-65
2023/05/03 00:57:33;;;;;;;;;;;;;;;16.27;50.46;102647.72;1250927;23;677;-65
2023/05/03 00:58:24;;;;;;;;;;;;;;;16.29;50.31;102645.81;1246846;23;623;-65
2023/05/03 00:59:14;;;;;;;;;;;;;;;16.31;49.87;102643.84;1250907;23;677;-65
2023/05/03 01:00:06;;;;;;;;;;;;;;;16.28;50.50;102649.47;1251248;23;614;-65
2023/05/03 01:00:57;;;;;;;;;;;;;;;16.29;50.07;102650.31;1251194;23;736;-65
2023/05/03 01:01:47;;;;;;;;;;;;;;;16.25;50.36;102654.16;1251045;23;638;-65
2023/05/03 01:02:38;;;;;;;;;;;;;;;16.29;50.27;102643.13;1247204;23;793;-65
2023/05/03 01:03:28;;;;;;;;;;;;;;;16.31;50.36;102649.25;1247541;23;682;-65
2023/05/03 01:04:19;;;;;;;;;;;;;;;16.31;49.95;102653.75;1247646;23;603;-65
2023/05/03 01:05:09;;;;;;;;;;;;;;;16.26;50.31;102659.44;1250442;23;685;-65
2023/05/03 01:06:00;;;;;;;;;;;;;;;16.24;50.51;102647.91;1251254;23;653;-65
2023/05/03 01:06:50;;;;;;;;;;;;;;;16.27;50.29;102646.84;1250916;23;602;-66
2023/05/03 01:07:41;;;;;;;;;;;;;;;16.24;50.44;102650.59;1250967;23;641;-66
2023/05/03 01:08:31;;;;;;;;;;;;;;;16.20;50.42;102642.78;1250963;23;646;-65
2023/05/03 01:09:21;;;;;;;;;;;;;;;16.19;50.39;102650.00;1250941;23;654;-66
2023/05/03 01:10:12;;;;;;;;;;;;;;;16.17;50.25;102649.22;1251159;23;651;-65
2023/05/03 01:11:02;;;;;;;;;;;;;;;16.21;50.00;102649.91;1250901;23;779;-65
2023/05/03 01:11:53;;;;;;;;;;;;;;;16.22;50.39;102651.63;1247438;23;682;-65
2023/05/03 01:12:43;;;;;;;;;;;;;;;16.20;50.42;102640.97;1249816;23;653;-65
2023/05/03 01:13:34;;;;;;;;;;;;;;;16.21;50.59;102644.53;1247627;23;623;-65
2023/05/03 01:14:24;;;;;;;;;;;;;;;16.19;50.76;102655.38;1250926;23;653;-65
2023/05/03 01:15:15;;;;;;;;;;;;;;;16.20;50.50;102645.47;1251158;23;630;-65
2023/05/03 01:16:06;;;;;;;;;;;;;;;16.19;50.68;102647.31;1251138;23;616;-65
2023/05/03 01:16:56;;;;;;;;;;;;;;;16.23;50.45;102650.69;1251022;23;646;-65
2023/05/03 01:17:47;;;;;;;;;;;;;;;16.24;50.42;102642.53;1251289;23;602;-64
2023/05/03 01:18:38;;;;;;;;;;;;;;;16.23;50.43;102639.91;1246677;23;759;-65
2023/05/03 01:19:28;;;;;;;;;;;;;;;16.11;50.60;102640.66;1250442;23;664;-64
2023/05/03 01:20:19;;;;;;;;;;;;;;;16.14;50.62;102646.69;1247536;23;1081;-65
2023/05/03 01:21:09;;;;;;;;;;;;;;;16.13;50.46;102644.09;1247376;23;658;-65
2023/05/03 01:22:00;;;;;;;;;;;;;;;16.11;50.80;102646.91;1249576;23;615;-65
2023/05/03 01:22:50;;;;;;;;;;;;;;;16.14;50.44;102645.84;1251075;23;598;-65
2023/05/03 01:23:41;;;;;;;;;;;;;;;16.14;50.65;102646.69;1250854;23;613;-65
2023/05/03 01:24:31;;;;;;;;;;;;;;;16.11;50.65;102652.28;1247271;23;788;-65
2023/05/03 01:25:22;;;;;;;;;;;;;;;16.07;50.79;102645.34;1247550;23;622;-65
2023/05/03 01:26:12;;;;;;;;;;;;;;;16.15;50.35;102651.13;1247570;23;615;-65
2023/05/03 01:27:04;;;;;;;;;;;;;;;16.16;50.30;102649.31;1251153;23;617;-65
2023/05/03 01:27:54;;;;;;;;;;;;;;;16.18;50.36;102648.25;1250943;23;1935;-65
2023/05/03 01:28:45;;;;;;;;;;;;;;;16.14;50.46;102646.69;1250923;23;668;-65
2023/05/03 01:29:35;;;;;;;;;;;;;;;16.13;50.43;102644.97;1250983;23;618;-65
2023/05/03 01:30:25;;;;;;;;;;;;;;;16.07;50.72;102645.34;1250829;23;657;-65
2023/05/03 01:31:16;;;;;;;;;;;;;;;16.11;50.41;102644.22;1251083;23;645;-65
2023/05/03 01:32:06;;;;;;;;;;;;;;;16.14;50.64;102644.00;1250936;23;648;-65
2023/05/03 01:32:57;;;;;;;;;;;;;;;16.11;50.54;102638.84;1250812;23;658;-65
2023/05/03 01:33:47;;;;;;;;;;;;;;;16.12;50.33;102637.84;1251081;23;618;-65
2023/05/03 01:34:37;;;;;;;;;;;;;;;16.06;50.62;102638.25;1250901;23;637;-65
2023/05/03 01:35:28;;;;;;;;;;;;;;;16.05;50.65;102639.19;1247254;23;626;-65
2023/05/03 01:36:18;;;;;;;;;;;;;;;16.04;50.77;102639.28;1247323;23;828;-65
2023/05/03 01:37:09;;;;;;;;;;;;;;;15.98;50.64;102640.50;1249340;23;603;-65
2023/05/03 01:38:00;;;;;;;;;;;;;;;16.01;50.57;102637.63;1251174;23;617;-65
2023/05/03 01:38:50;;;;;;;;;;;;;;;15.96;50.64;102642.41;1251089;23;582;-65
2023/05/03 01:39:41;;;;;;;;;;;;;;;15.98;50.94;102646.75;1250873;23;642;-65
2023/05/03 01:40:31;;;;;;;;;;;;;;;16.00;50.67;102643.97;1249304;23;650;-66
2023/05/03 01:41:21;;;;;;;;;;;;;;;15.95;51.00;102646.06;1250896;23;650;-65
2023/05/03 01:42:12;;;;;;;;;;;;;;;15.94;51.01;102636.28;1246758;23;650;-65
2023/05/03 01:43:02;;;;;;;;;;;;;;;15.97;50.90;102633.38;1250975;23;621;-66
2023/05/03 01:43:53;;;;;;;;;;;;;;;16.03;51.14;102637.53;1251182;23;620;-65
2023/05/03 01:44:43;;;;;;;;;;;;;;;16.04;50.51;102639.28;1250971;23;622;-66
2023/05/03 01:45:34;;;;;;;;;;;;;;;16.03;50.31;102638.41;1250858;23;634;-65
2023/05/03 01:46:24;;;;;;;;;;;;;;;16.04;50.51;102644.66;1250886;23;724;-66
2023/05/03 01:47:14;;;;;;;;;;;;;;;16.04;50.43;102634.78;1247116;23;662;-66
2023/05/03 01:48:05;;;;;;;;;;;;;;;16.00;50.47;102643.09;1251022;23;1909;-65
2023/05/03 01:48:55;;;;;;;;;;;;;;;15.92;50.63;102641.75;1251050;23;614;-66
2023/05/03 01:49:46;;;;;;;;;;;;;;;15.95;50.62;102646.06;1249366;23;645;-66
2023/05/03 01:50:36;;;;;;;;;;;;;;;15.92;50.71;102638.19;1246885;23;677;-66
2023/05/03 01:51:27;;;;;;;;;;;;;;;15.92;50.78;102639.06;1247111;23;611;-66
2023/05/03 01:52:17;;;;;;;;;;;;;;;15.94;50.65;102638.97;1251096;23;653;-65
2023/05/03 01:53:07;;;;;;;;;;;;;;;15.92;50.54;102638.19;1250880;23;696;-65
2023/05/03 01:53:58;;;;;;;;;;;;;;;15.89;50.75;102638.38;1251268;23;609;-66
2023/05/03 01:54:48;;;;;;;;;;;;;;;15.86;50.76;102636.72;1250952;23;653;-65
2023/05/03 01:55:39;;;;;;;;;;;;;;;15.93;50.96;102632.72;1250980;23;1063;-65
2023/05/03 01:56:29;;;;;;;;;;;;;;;15.91;50.76;102634.63;1250950;23;610;-65
2023/05/03 01:57:20;;;;;;;;;;;;;;;15.93;50.66;102631.88;1250839;23;677;-65
2023/05/03 01:58:10;;;;;;;;;;;;;;;15.88;50.77;102628.56;1251537;23;638;-65
2023/05/03 01:59:01;;;;;;;;;;;;;;;15.88;50.78;102636.63;1251517;23;645;-65
2023/05/03 01:59:51;;;;;;;;;;;;;;;15.92;50.53;102632.81;1251348;23;612;-65
2023/05/03 02:00:42;;;;;;;;;;;;;;;15.91;50.61;102634.63;1247527;23;658;-65
2023/05/03 02:01:32;;;;;;;;;;;;;;;15.84;50.84;102632.38;1251442;23;610;-65
2023/05/03 02:02:22;;;;;;;;;;;;;;;15.83;50.59;102630.66;1251223;23;610;-65
2023/05/03 02:03:13;;;;;;;;;;;;;;;15.84;50.74;102632.38;1251020;23;610;-65
2023/05/03 02:04:03;;;;;;;;;;;;;;;15.84;50.84;102633.25;1251382;23;672;-65
2023/05/03 02:04:54;;;;;;;;;;;;;;;15.83;50.62;102626.13;1251648;23;618;-65
2023/05/03 02:05:44;;;;;;;;;;;;;;;15.83;50.86;102631.53;1251405;23;594;-65
2023/05/03 02:06:35;;;;;;;;;;;;;;;15.81;50.94;102622.69;1251195;23;672;-65
2023/05/03 02:07:25;;;;;;;;;;;;;;;15.85;50.64;102626.06;1248567;23;639;-65
2023/05/03 02:08:16;;;;;;;;;;;;;;;15.87;50.71;102622.31;1251225;23;696;-66
2023/05/03 02:09:07;;;;;;;;;;;;;;;15.87;50.81;102627.69;1251441;23;666;-65
2023/05/03 02:09:57;;;;;;;;;;;;;;;15.86;50.95;102623.28;1247392;23;667;-65
2023/05/03 02:10:48;;;;;;;;;;;;;;;15.88;51.09;102629.44;1251517;23;646;-65
2023/05/03 02:11:38;;;;;;;;;;;;;;;15.91;50.55;102625.72;1251307;23;653;-65
2023/05/03 02:12:29;;;;;;;;;;;;;;;15.89;50.79;102620.41;1247753;23;650;-65
2023/05/03 02:13:19;;;;;;;;;;;;;;;15.87;50.48;102618.78;1247658;23;666;-65
2023/05/03 02:14:09;;;;;;;;;;;;;;;15.85;50.87;102620.69;1249810;23;634;-65
2023/05/03 02:15:00;;;;;;;;;;;;;;;15.80;50.95;102609.31;1251511;23;645;-65
2023/05/03 02:15:50;;;;;;;;;;;;;;;15.82;50.95;102610.09;1251273;23;684;-65
2023/05/03 02:16:41;;;;;;;;;;;;;;;15.82;50.67;102604.72;1251419;23;621;-65
2023/05/03 02:17:33;;;;;;;;;;;;;;;15.78;50.66;102611.22;1250973;23;610;-66
2023/05/03 02:18:23;;;;;;;;;;;;;;;15.75;50.65;102603.38;1247184;23;604;-66
2023/05/03 02:19:13;;;;;;;;;;;;;;;15.76;50.72;102602.41;1251261;23;594;-66
2023/05/03 02:20:10;;;;;;;;;;;;;;;15.79;50.43;102603.06;1251536;23;748;-66
2023/05/03 02:21:01;;;;;;;;;;;;;;;15.75;50.77;102600.69;1251477;23;661;-66
2023/05/03 02:21:51;;;;;;;;;;;;;;;15.73;51.00;102597.22;1251384;23;665;-65
2023/05/03 02:22:42;;;;;;;;;;;;;;;15.71;51.09;102596.44;1251098;23;618;-65
2023/05/03 02:23:32;;;;;;;;;;;;;;;15.73;50.77;102594.53;1251407;23;601;-65
2023/05/03 02:24:22;;;;;;;;;;;;;;;15.73;51.05;102597.22;1251207;23;548;-65
2023/05/03 02:25:13;;;;;;;;;;;;;;;15.72;50.71;102598.16;1251304;23;621;-65
2023/05/03 02:26:03;;;;;;;;;;;;;;;15.75;50.85;102593.50;1251319;23;791;-65
2023/05/03 02:26:54;;;;;;;;;;;;;;;15.72;50.95;102595.47;1247104;23;876;-65
2023/05/03 02:27:45;;;;;;;;;;;;;;;15.72;50.67;102592.78;1247542;23;828;-65
2023/05/03 02:28:35;;;;;;;;;;;;;;;15.71;50.98;102596.44;1251355;23;610;-66
2023/05/03 02:29:25;;;;;;;;;;;;;;;15.65;51.15;102591.41;1247791;23;709;-65
2023/05/03 02:30:16;;;;;;;;;;;;;;;15.66;50.72;102587.75;1247474;23;623;-65
2023/05/03 02:31:06;;;;;;;;;;;;;;;15.67;50.86;102586.81;1248143;23;694;-65
2023/05/03 02:31:57;;;;;;;;;;;;;;;15.71;50.72;102588.38;1251136;23;598;-65
2023/05/03 02:32:47;;;;;;;;;;;;;;;15.70;51.03;102586.63;1251468;23;556;-66
2023/05/03 02:33:38;;;;;;;;;;;;;;;15.69;50.73;102580.41;1251236;23;740;-65
2023/05/03 02:34:28;;;;;;;;;;;;;;;15.66;51.13;102579.69;1251333;23;621;-65
2023/05/03 02:35:18;;;;;;;;;;;;;;;15.66;50.56;102580.56;1251292;23;637;-65
2023/05/03 02:36:09;;;;;;;;;;;;;;;15.62;51.06;102577.19;1247049;23;737;-65
2023/05/03 02:36:59;;;;;;;;;;;;;;;15.66;50.68;102585.09;1251466;23;614;-66
2023/05/03 02:37:50;;;;;;;;;;;;;;;15.68;50.68;102575.09;1251077;23;657;-65
2023/05/03 02:38:40;;;;;;;;;;;;;;;15.69;50.62;102579.53;1247190;23;562;-65
2023/05/03 02:39:31;;;;;;;;;;;;;;;15.66;50.87;102579.69;1251123;23;657;-66
2023/05/03 02:40:21;;;;;;;;;;;;;;;15.66;50.97;102579.69;1247166;23;685;-66
2023/05/03 02:41:11;;;;;;;;;;;;;;;15.70;50.80;102581.25;1251206;23;689;-65
2023/05/03 02:42:02;;;;;;;;;;;;;;;15.70;51.00;102592.00;1251390;23;661;-66
2023/05/03 02:42:52;;;;;;;;;;;;;;;15.68;50.55;102583.16;1251237;23;649;-66
2023/05/03 02:43:43;;;;;;;;;;;;;;;15.66;50.56;102587.75;1251580;23;783;-66
2023/05/03 02:44:33;;;;;;;;;;;;;;;15.69;50.63;102595.66;1251239;23;710;-66
2023/05/03 02:45:24;;;;;;;;;;;;;;;15.65;51.04;102584.22;1251286;23;638;-66
2023/05/03 02:46:14;;;;;;;;;;;;;;;15.62;50.63;102585.25;1251370;23;669;-66
2023/05/03 02:47:04;;;;;;;;;;;;;;;15.66;50.94;102595.81;1250773;23;642;-66
2023/05/03 02:47:55;;;;;;;;;;;;;;;15.66;50.54;102590.47;1251484;23;1902;-66
2023/05/03 02:48:45;;;;;;;;;;;;;;;15.63;50.66;102584.31;1251136;23;637;-66
2023/05/03 02:49:36;;;;;;;;;;;;;;;15.63;50.63;102594.19;1251164;23;684;-66
2023/05/03 02:50:26;;;;;;;;;;;;;;;15.60;50.50;102589.84;1251357;23;665;-66
2023/05/03 02:51:17;;;;;;;;;;;;;;;15.61;50.70;102588.91;1251239;23;618;-66
2023/05/03 02:52:07;;;;;;;;;;;;;;;15.62;50.91;102595.13;1251364;23;658;-66
2023/05/03 02:52:57;;;;;;;;;;;;;;;15.61;50.64;102594.28;1251090;23;622;-66
2023/05/03 02:53:48;;;;;;;;;;;;;;;15.60;50.88;102597.03;1251155;23;618;-66
2023/05/03 02:54:38;;;;;;;;;;;;;;;15.59;50.88;102589.94;1251342;23;657;-66
2023/05/03 02:55:29;;;;;;;;;;;;;;;15.51;50.66;102587.69;1251106;23;661;-66
2023/05/03 02:56:19;;;;;;;;;;;;;;;15.54;50.91;102603.63;1251329;23;633;-66
2023/05/03 02:57:10;;;;;;;;;;;;;;;15.56;50.82;102609.81;1247304;23;674;-66
2023/05/03 02:58:01;;;;;;;;;;;;;;;15.56;51.14;102607.13;1251465;23;677;-66
2023/05/03 02:58:51;;;;;;;;;;;;;;;15.51;50.60;102609.16;1247229;23;631;-66
2023/05/03 02:59:42;;;;;;;;;;;;;;;15.53;50.99;102617.16;1249666;23;657;-66
2023/05/03 03:00:32;;;;;;;;;;;;;;;15.51;50.62;102613.69;1251242;23;697;-66
2023/05/03 03:01:23;;;;;;;;;;;;;;;15.51;50.74;102619.06;1247338;23;623;-66
2023/05/03 03:02:13;;;;;;;;;;;;;;;15.47;51.09;102615.66;1251387;23;711;-66
2023/05/03 03:03:04;;;;;;;;;;;;;;;15.45;51.20;102617.56;1247371;23;670;-66
2023/05/03 03:03:54;;;;;;;;;;;;;;;15.48;50.95;102617.41;1251502;23;664;-66
2023/05/03 03:04:44;;;;;;;;;;;;;;;15.49;50.81;102612.91;1251212;23;668;-66
2023/05/03 03:05:35;;;;;;;;;;;;;;;15.48;50.85;102614.72;1251475;23;610;-66
2023/05/03 03:06:26;;;;;;;;;;;;;;;15.50;51.00;102618.19;1248744;23;712;-66
2023/05/03 03:07:16;;;;;;;;;;;;;;;15.53;51.00;102615.31;1251326;23;650;-66
2023/05/03 03:08:07;;;;;;;;;;;;;;;15.54;50.93;102619.75;1250982;23;1923;-66
2023/05/03 03:08:57;;;;;;;;;;;;;;;15.53;50.80;102620.69;1251333;23;633;-66
2023/05/03 03:09:48;;;;;;;;;;;;;;;15.52;50.60;102621.66;1251192;23;614;-66
2023/05/03 03:10:38;;;;;;;;;;;;;;;15.52;50.59;102620.78;1251261;23;670;-66
2023/05/03 03:11:29;;;;;;;;;;;;;;;15.48;50.83;102614.72;1251207;23;621;-66
2023/05/03 03:12:19;;;;;;;;;;;;;;;15.51;50.85;102611.88;1247093;23;631;-66
2023/05/03 03:13:10;;;;;;;;;;;;;;;15.50;50.89;102620.00;1251244;23;661;-66
2023/05/03 03:14:00;;;;;;;;;;;;;;;15.51;50.80;102619.06;1251389;23;614;-66
2023/05/03 03:14:51;;;;;;;;;;;;;;;15.50;50.50;102610.13;1251269;23;672;-66
2023/05/03 03:15:41;;;;;;;;;;;;;;;15.52;50.51;102605.53;1250892;23;669;-66
2023/05/03 03:16:31;;;;;;;;;;;;;;;15.53;50.88;102618.03;1251036;23;664;-66
2023/05/03 03:17:22;;;;;;;;;;;;;;;15.48;50.78;102609.34;1251412;23;621;-65
2023/05/03 03:18:12;;;;;;;;;;;;;;;15.47;51.07;102615.66;1247187;23;748;-66
2023/05/03 03:19:03;;;;;;;;;;;;;;;15.41;51.21;102610.63;1246976;23;751;-66
2023/05/03 03:19:53;;;;;;;;;;;;;;;15.44;50.74;102612.28;1251359;23;655;-66
2023/05/03 03:20:44;;;;;;;;;;;;;;;15.41;50.89;102607.09;1250989;23;637;-66
2023/05/03 03:21:35;;;;;;;;;;;;;;;15.44;51.07;102604.22;1248689;23;595;-66
2023/05/03 03:22:26;;;;;;;;;;;;;;;15.44;50.41;102610.47;1248683;23;704;-66
2023/05/03 03:23:16;;;;;;;;;;;;;;;15.42;51.14;102612.38;1251278;23;609;-66
2023/05/03 03:24:07;;;;;;;;;;;;;;;15.42;50.86;102609.69;1251012;23;661;-66
2023/05/03 03:24:57;;;;;;;;;;;;;;;15.41;51.15;102615.16;1251359;23;652;-65
2023/05/03 03:25:48;;;;;;;;;;;;;;;15.40;50.84;102617.00;1247874;23;618;-66
2023/05/03 03:26:38;;;;;;;;;;;;;;;15.41;50.74;102621.38;1249932;23;615;-66
2023/05/03 03:27:29;;;;;;;;;;;;;;;15.38;50.59;102608.16;1248004;23;543;-66
2023/05/03 03:28:19;;;;;;;;;;;;;;;15.41;50.92;102613.31;1251383;23;763;-66
2023/05/03 03:29:09;;;;;;;;;;;;;;;15.40;50.90;102617.00;1251211;23;610;-67
2023/05/03 03:30:00;;;;;;;;;;;;;;;15.38;50.84;102618.03;1250988;23;641;-66
2023/05/03 03:30:50;;;;;;;;;;;;;;;15.38;50.74;102616.22;1251256;23;606;-66
2023/05/03 03:31:41;;;;;;;;;;;;;;;15.38;50.56;102616.22;1251088;23;625;-66
2023/05/03 03:32:31;;;;;;;;;;;;;;;15.40;50.72;102622.38;1246967;23;791;-66
2023/05/03 03:33:22;;;;;;;;;;;;;;;15.40;50.82;102616.13;1247296;23;697;-66
2023/05/03 03:34:12;;;;;;;;;;;;;;;15.44;51.26;102618.53;1251302;23;638;-66
2023/05/03 03:35:03;;;;;;;;;;;;;;;15.40;50.75;102619.69;1251127;23;646;-66
2023/05/03 03:35:53;;;;;;;;;;;;;;;15.34;50.80;102622.69;1247177;23;680;-65
2023/05/03 03:36:44;;;;;;;;;;;;;;;15.37;50.84;102621.66;1251131;23;606;-66
2023/05/03 03:37:34;;;;;;;;;;;;;;;15.33;51.17;102626.34;1251391;23;589;-66
2023/05/03 03:38:24;;;;;;;;;;;;;;;15.33;50.96;102629.03;1251130;23;653;-66
2023/05/03 03:39:15;;;;;;;;;;;;;;;15.33;50.98;102620.97;1251240;23;602;-66
2023/05/03 03:40:07;;;;;;;;;;;;;;;15.36;50.51;102623.50;1251270;23;653;-66
2023/05/03 03:40:57;;;;;;;;;;;;;;;15.36;50.88;102630.69;1251326;23;649;-66
2023/05/03 03:41:48;;;;;;;;;;;;;;;15.35;50.61;102621.75;1247369;23;669;-66
2023/05/03 03:42:38;;;;;;;;;;;;;;;15.34;50.64;102621.84;1246933;23;626;-66
2023/05/03 03:43:28;;;;;;;;;;;;;;;15.35;50.86;102618.19;1251175;23;645;-66
2023/05/03 03:44:19;;;;;;;;;;;;;;;15.33;50.62;102615.59;1251066;23;622;-66
2023/05/03 03:45:09;;;;;;;;;;;;;;;15.30;50.79;102623.81;1251256;23;779;-66
2023/05/03 03:46:00;;;;;;;;;;;;;;;15.27;51.27;102626.69;1250910;23;1087;-66
2023/05/03 03:46:50;;;;;;;;;;;;;;;15.25;50.97;102623.22;1247339;23;607;-66
2023/05/03 03:47:41;;;;;;;;;;;;;;;15.23;50.72;102619.72;1247697;23;642;-66
2023/05/03 03:48:31;;;;;;;;;;;;;;;15.26;51.21;102616.88;1247720;23;647;-66
2023/05/03 03:49:21;;;;;;;;;;;;;;;15.27;51.00;102621.31;1251148;23;610;-66
2023/05/03 03:50:12;;;;;;;;;;;;;;;15.24;50.79;102624.16;1251352;23;749;-66
2023/05/03 03:51:02;;;;;;;;;;;;;;;15.25;50.82;102621.38;1251365;23;654;-66
2023/05/03 03:51:53;;;;;;;;;;;;;;;15.26;51.13;102625.81;1251002;23;665;-66
2023/05/03 03:52:43;;;;;;;;;;;;;;;15.32;50.53;102623.75;1246974;23;622;-66
2023/05/03 03:53:34;;;;;;;;;;;;;;;15.33;51.05;102615.59;1249592;23;629;-66
2023/05/03 03:54:24;;;;;;;;;;;;;;;15.34;50.76;102621.84;1251412;23;598;-66
2023/05/03 03:55:14;;;;;;;;;;;;;;;15.33;50.99;102620.97;1247215;23;677;-65
2023/05/03 03:56:05;;;;;;;;;;;;;;;15.29;51.00;102611.34;1251463;23;684;-65
2023/05/03 03:56:55;;;;;;;;;;;;;;;15.29;50.56;102614.03;1251320;23;630;-65
2023/05/03 03:57:46;;;;;;;;;;;;;;;15.29;50.52;102617.59;1251113;23;685;-65
2023/05/03 03:58:36;;;;;;;;;;;;;;;15.29;50.60;102617.59;1251232;23;598;-65
2023/05/03 03:59:27;;;;;;;;;;;;;;;15.30;50.37;102613.06;1251075;23;610;-65
2023/05/03 04:00:17;;;;;;;;;;;;;;;15.31;50.37;102617.50;1249542;23;741;-65
2023/05/03 04:01:08;;;;;;;;;;;;;;;15.30;50.66;102621.13;1247286;23;642;-65
2023/05/03 04:01:58;;;;;;;;;;;;;;;15.27;50.63;102624.84;1251308;23;646;-66
2023/05/03 04:02:48;;;;;;;;;;;;;;;15.25;50.87;102628.56;1247123;23;842;-66
2023/05/03 04:03:39;;;;;;;;;;;;;;;15.22;50.64;102628.78;1251271;23;653;-66
2023/05/03 04:04:30;;;;;;;;;;;;;;;15.23;50.49;102623.28;1251199;23;637;-65
2023/05/03 04:05:21;;;;;;;;;;;;;;;15.24;51.02;102630.41;1251033;23;625;-66
2023/05/03 04:06:11;;;;;;;;;;;;;;;15.26;50.91;102619.56;1246920;23;795;-65
2023/05/03 04:07:03;;;;;;;;;;;;;;;15.25;50.89;102625.88;1251157;23;637;-66
2023/05/03 04:07:53;;;;;;;;;;;;;;;15.23;50.80;102620.59;1246928;23;1932;-66
2023/05/03 04:08:44;;;;;;;;;;;;;;;15.21;50.73;102618.97;1250971;23;614;-66
2023/05/03 04:09:34;;;;;;;;;;;;;;;15.20;51.00;102622.63;1251268;23;728;-65
2023/05/03 04:10:25;;;;;;;;;;;;;;;15.22;51.01;102628.78;1251080;23;662;-66
2023/05/03 04:11:15;;;;;;;;;;;;;;;15.22;50.78;102632.34;1251274;23;646;-66
2023/05/03 04:12:06;;;;;;;;;;;;;;;15.25;50.83;102618.69;1251113;23;638;-66
2023/05/03 04:12:56;;;;;;;;;;;;;;;15.23;50.62;102630.47;1251377;23;648;-66
2023/05/03 04:13:46;;;;;;;;;;;;;;;15.24;50.41;102624.16;1250622;23;603;-66
2023/05/03 04:14:37;;;;;;;;;;;;;;;15.27;50.53;102627.53;1246732;23;599;-66
2023/05/03 04:15:27;;;;;;;;;;;;;;;15.28;50.64;102625.72;1246959;23;627;-65
2023/05/03 04:16:18;;;;;;;;;;;;;;;15.24;50.45;102634.91;1250920;23;625;-65
2023/05/03 04:17:08;;;;;;;;;;;;;;;15.23;50.83;102633.16;1251182;23;606;-65
2023/05/03 04:17:59;;;;;;;;;;;;;;;15.23;50.80;102638.53;1251055;23;637;-65
2023/05/03 04:18:49;;;;;;;;;;;;;;;15.21;50.74;102633.28;1251292;23;714;-65
2023/05/03 04:19:40;;;;;;;;;;;;;;;15.18;50.66;102638.81;1247734;23;599;-67
2023/05/03 04:20:31;;;;;;;;;;;;;;;15.14;50.69;102631.88;1247075;23;871;-65
2023/05/03 04:21:21;;;;;;;;;;;;;;;15.20;50.89;102642.28;1247815;23;631;-67
2023/05/03 04:22:12;;;;;;;;;;;;;;;15.18;50.71;102646.00;1251007;23;629;-65
2023/05/03 04:23:02;;;;;;;;;;;;;;;15.16;50.91;102635.34;1251222;23;650;-65
2023/05/03 04:23:53;;;;;;;;;;;;;;;15.18;50.84;102646.00;1249478;23;728;-65
2023/05/03 04:24:44;;;;;;;;;;;;;;;15.17;50.75;102636.22;1251284;23;626;-65
2023/05/03 04:25:35;;;;;;;;;;;;;;;15.22;50.53;102644.88;1250966;23;638;-65
2023/05/03 04:26:26;;;;;;;;;;;;;;;15.21;50.29;102648.53;1250922;23;629;-66